createdAt,value
2017-08-22T00:00:55.786Z,82.67
2017-08-22T00:01:55.501Z,82.57
2017-08-22T00:02:55.737Z,82.57
2017-08-22T00:03:55.410Z,83.14
2017-08-22T00:04:55.719Z,83.28
2017-08-22T00:05:55.696Z,83.05
2017-08-22T00:06:55.369Z,82.86
2017-08-22T00:07:55.670Z,82.76
2017-08-22T00:08:55.657Z,83.05
2017-08-22T00:09:55.326Z,83.34
2017-08-22T00:10:55.322Z,82.76
2017-08-22T00:11:55.612Z,82.57
2017-08-22T00:12:55.284Z,83.05
2017-08-22T00:13:55.636Z,82.29
2017-08-22T00:14:55.258Z,82.09
2017-08-22T00:15:55.558Z,82
2017-08-22T00:16:55.230Z,81.9
2017-08-22T00:17:55.529Z,81.04
2017-08-22T00:18:55.516Z,81.43
2017-08-22T00:19:55.507Z,80.66
2017-08-22T00:20:55.487Z,80.66
2017-08-22T00:21:55.474Z,80.19
2017-08-22T00:22:55.149Z,80.38
2017-08-22T00:23:55.445Z,80.47
2017-08-22T00:24:55.435Z,79.99
2017-08-22T00:25:55.105Z,79.43
2017-08-22T00:26:55.408Z,79.33
2017-08-22T00:27:55.394Z,79.14
2017-08-22T00:28:55.066Z,79.04
2017-08-22T00:29:55.057Z,79.14
2017-08-22T00:30:55.364Z,78.75
2017-08-22T00:31:55.340Z,78.75
2017-08-22T00:32:55.323Z,79.14
2017-08-22T00:33:55.308Z,78.66
2017-08-22T00:34:55.303Z,77.89
2017-08-22T00:35:55.292Z,77.7
2017-08-22T00:36:55.269Z,78.13
2017-08-22T00:37:55.254Z,77.8
2017-08-22T00:38:54.932Z,77.26
2017-08-22T00:39:55.229Z,77.61
2017-08-22T00:40:54.900Z,77.7
2017-08-22T00:41:55.205Z,77.51
2017-08-22T00:42:55.183Z,77.32
2017-08-22T00:43:55.168Z,77.61
2017-08-22T00:44:55.156Z,77.42
2017-08-22T00:45:54.827Z,76.75
2017-08-22T00:46:55.126Z,77.03
2017-08-22T00:47:54.804Z,77.13
2017-08-22T00:48:55.100Z,76.94
2017-08-22T00:49:54.774Z,76.84
2017-08-22T00:50:54.762Z,76.84
2017-08-22T00:51:54.747Z,76.37
2017-08-22T00:52:54.732Z,76.65
2017-08-22T00:53:55.033Z,76.65
2017-08-22T00:54:54.704Z,76.75
2017-08-22T00:55:54.696Z,77.13
2017-08-22T00:56:54.679Z,76.75
2017-08-22T00:57:54.661Z,76.84
2017-08-22T00:58:54.981Z,76.75
2017-08-22T00:59:54.951Z,76.94
2017-08-22T01:00:54.620Z,77.13
2017-08-22T01:01:54.606Z,76.56
2017-08-22T01:02:54.593Z,77.03
2017-08-22T01:03:54.580Z,76.94
2017-08-22T01:04:54.877Z,77.13
2017-08-22T01:05:54.552Z,77.03
2017-08-22T01:06:54.539Z,77.8
2017-08-22T01:07:54.523Z,78.09
2017-08-22T01:08:54.820Z,78.28
2017-08-22T01:09:54.496Z,78.18
2017-08-22T01:10:54.485Z,78.18
2017-08-22T01:11:54.784Z,78.09
2017-08-22T01:12:54.765Z,79.04
2017-08-22T01:13:54.752Z,78.94
2017-08-22T01:14:54.426Z,78.94
2017-08-22T01:15:54.452Z,78.85
2017-08-22T01:16:54.400Z,78.28
2017-08-22T01:17:54.697Z,78.81
2017-08-22T01:18:54.682Z,78.23
2017-08-22T01:19:54.355Z,78.05
2017-08-22T01:20:54.346Z,77.95
2017-08-22T01:21:54.644Z,77.76
2017-08-22T01:22:54.655Z,77.76
2017-08-22T01:23:54.609Z,77.67
2017-08-22T01:24:54.335Z,77.67
2017-08-22T01:25:54.583Z,77.57
2017-08-22T01:26:54.257Z,77.57
2017-08-22T01:27:54.242Z,77.47
2017-08-22T01:28:54.234Z,76.9
2017-08-22T01:29:54.529Z,76.52
2017-08-22T01:30:54.520Z,76.23
2017-08-22T01:31:54.505Z,76.62
2017-08-22T01:32:54.484Z,76.52
2017-08-22T01:33:54.160Z,76.14
2017-08-22T01:34:54.144Z,75.57
2017-08-22T01:35:54.438Z,75.76
2017-08-22T01:36:54.426Z,75.66
2017-08-22T01:37:54.416Z,75.28
2017-08-22T01:38:54.403Z,75.18
2017-08-22T01:39:54.387Z,74.9
2017-08-22T01:40:54.374Z,74.52
2017-08-22T01:41:54.355Z,74.04
2017-08-22T01:42:54.342Z,74.04
2017-08-22T01:43:54.015Z,73.28
2017-08-22T01:44:54.317Z,73.94
2017-08-22T01:45:54.296Z,73.22
2017-08-22T01:46:53.979Z,72.64
2017-08-22T01:47:54.269Z,72.64
2017-08-22T01:48:54.257Z,72.42
2017-08-22T01:49:54.242Z,71.98
2017-08-22T01:50:54.229Z,71.98
2017-08-22T01:51:54.213Z,71.5
2017-08-22T01:52:54.201Z,71.69
2017-08-22T01:53:54.388Z,71.88
2017-08-22T01:54:53.864Z,71.69
2017-08-22T01:55:54.156Z,71.41
2017-08-22T01:56:53.834Z,71.5
2017-08-22T01:57:54.148Z,71.5
2017-08-22T01:58:53.802Z,71.5
2017-08-22T01:59:53.787Z,71.5
2017-08-22T02:00:53.774Z,71.59
2017-08-22T02:01:54.074Z,71.59
2017-08-22T02:02:54.060Z,71.5
2017-08-22T02:03:54.044Z,71.31
2017-08-22T02:04:54.051Z,71.88
2017-08-22T02:05:54.014Z,72.36
2017-08-22T02:06:53.694Z,72.17
2017-08-22T02:07:53.999Z,71.88
2017-08-22T02:08:53.973Z,72.17
2017-08-22T02:09:53.987Z,72.17
2017-08-22T02:10:53.641Z,71.59
2017-08-22T02:11:53.623Z,71.5
2017-08-22T02:12:53.612Z,70.92
2017-08-22T02:13:53.592Z,70.26
2017-08-22T02:14:53.581Z,70.26
2017-08-22T02:15:53.565Z,70.64
2017-08-22T02:16:53.862Z,70.45
2017-08-22T02:17:53.848Z,70.36
2017-08-22T02:18:53.523Z,70.36
2017-08-22T02:19:53.821Z,70.36
2017-08-22T02:20:53.497Z,70.16
2017-08-22T02:21:53.793Z,70.87
2017-08-22T02:22:53.778Z,71.12
2017-08-22T02:23:53.768Z,71.31
2017-08-22T02:24:53.752Z,71.5
2017-08-22T02:25:53.426Z,71.31
2017-08-22T02:26:53.727Z,71.5
2017-08-22T02:27:53.712Z,70.45
2017-08-22T02:28:53.704Z,70.64
2017-08-22T02:29:53.681Z,70.26
2017-08-22T02:30:53.355Z,69.87
2017-08-22T02:31:53.342Z,70.07
2017-08-22T02:32:53.342Z,69.21
2017-08-22T02:33:53.339Z,69.59
2017-08-22T02:34:53.299Z,69.49
2017-08-22T02:35:53.599Z,69.21
2017-08-22T02:36:53.274Z,68.92
2017-08-22T02:37:53.257Z,69.11
2017-08-22T02:38:53.245Z,68.73
2017-08-22T02:39:53.237Z,68.73
2017-08-22T02:40:53.528Z,68.44
2017-08-22T02:41:53.202Z,69.02
2017-08-22T02:42:53.502Z,68.92
2017-08-22T02:43:53.174Z,69.11
2017-08-22T02:44:53.474Z,68.63
2017-08-22T02:45:53.462Z,68.82
2017-08-22T02:46:53.453Z,68.92
2017-08-22T02:47:53.132Z,68.82
2017-08-22T02:48:53.416Z,69.02
2017-08-22T02:49:53.089Z,68.92
2017-08-22T02:50:53.395Z,69.4
2017-08-22T02:51:53.379Z,69.82
2017-08-22T02:52:53.052Z,69.68
2017-08-22T02:53:53.346Z,69.59
2017-08-22T02:54:53.350Z,69.31
2017-08-22T02:55:53.014Z,69.11
2017-08-22T02:56:53.304Z,68.92
2017-08-22T02:57:53.288Z,68.82
2017-08-22T02:58:52.967Z,68.54
2017-08-22T02:59:52.951Z,68.54
2017-08-22T03:00:52.939Z,68.54
2017-08-22T03:01:53.234Z,68.63
2017-08-22T03:02:52.909Z,68.35
2017-08-22T03:03:52.895Z,67.97
2017-08-22T03:04:52.880Z,67.62
2017-08-22T03:05:52.867Z,67.14
2017-08-22T03:06:52.852Z,67.33
2017-08-22T03:07:53.152Z,67.24
2017-08-22T03:08:53.136Z,66.85
2017-08-22T03:09:52.813Z,66.95
2017-08-22T03:10:53.116Z,66.66
2017-08-22T03:11:52.785Z,67.33
2017-08-22T03:12:53.080Z,67.43
2017-08-22T03:13:53.068Z,68
2017-08-22T03:14:53.057Z,68.1
2017-08-22T03:15:52.730Z,68.48
2017-08-22T03:16:53.030Z,68.96
2017-08-22T03:17:53.014Z,69.53
2017-08-22T03:18:52.694Z,70.1
2017-08-22T03:19:52.675Z,70.01
2017-08-22T03:20:52.969Z,70.01
2017-08-22T03:21:52.969Z,70.1
2017-08-22T03:22:52.944Z,70.2
2017-08-22T03:23:52.938Z,70.58
2017-08-22T03:24:52.605Z,70.1
2017-08-22T03:25:52.907Z,70.77
2017-08-22T03:26:52.575Z,70.96
2017-08-22T03:27:52.561Z,70.58
2017-08-22T03:28:52.865Z,70.96
2017-08-22T03:29:52.850Z,70.96
2017-08-22T03:30:52.523Z,70.67
2017-08-22T03:31:52.826Z,70.87
2017-08-22T03:32:52.807Z,70.67
2017-08-22T03:33:52.795Z,71.25
2017-08-22T03:34:52.778Z,71.06
2017-08-22T03:35:52.451Z,71.25
2017-08-22T03:36:52.753Z,71.06
2017-08-22T03:37:52.739Z,71.15
2017-08-22T03:38:52.726Z,71.06
2017-08-22T03:39:52.711Z,71.34
2017-08-22T03:40:52.696Z,70.77
2017-08-22T03:41:52.373Z,70.87
2017-08-22T03:42:52.356Z,70.77
2017-08-22T03:43:52.661Z,71.34
2017-08-22T03:44:52.642Z,71.25
2017-08-22T03:45:52.631Z,70.87
2017-08-22T03:46:52.617Z,70.77
2017-08-22T03:47:52.315Z,70.2
2017-08-22T03:48:52.276Z,70.01
2017-08-22T03:49:52.261Z,69.62
2017-08-22T03:50:52.247Z,69.62
2017-08-22T03:51:52.235Z,69.43
2017-08-22T03:52:52.220Z,69.62
2017-08-22T03:53:52.722Z,69.15
2017-08-22T03:54:52.506Z,69.05
2017-08-22T03:55:52.487Z,69.53
2017-08-22T03:56:52.478Z,69.43
2017-08-22T03:57:52.149Z,69.72
2017-08-22T03:58:52.449Z,69.43
2017-08-22T03:59:52.125Z,69.72
2017-08-22T04:00:52.424Z,69.43
2017-08-22T04:01:52.424Z,69.53
2017-08-22T04:02:52.084Z,69.82
2017-08-22T04:03:52.066Z,69.34
2017-08-22T04:04:52.372Z,69.72
2017-08-22T04:05:52.353Z,69.72
2017-08-22T04:06:52.028Z,69.34
2017-08-22T04:07:52.325Z,69.34
2017-08-22T04:08:52.312Z,69.62
2017-08-22T04:09:52.350Z,69.53
2017-08-22T04:10:51.970Z,69.91
2017-08-22T04:11:52.270Z,70.1
2017-08-22T04:12:52.256Z,70.01
2017-08-22T04:13:51.931Z,69.82
2017-08-22T04:14:52.238Z,69.82
2017-08-22T04:15:52.213Z,70.1
2017-08-22T04:16:52.207Z,70.01
2017-08-22T04:17:52.190Z,69.91
2017-08-22T04:18:52.174Z,70.01
2017-08-22T04:19:51.846Z,70.2
2017-08-22T04:20:52.148Z,70.39
2017-08-22T04:21:52.144Z,70.29
2017-08-22T04:22:52.118Z,70.29
2017-08-22T04:23:52.129Z,70.1
2017-08-22T04:24:51.781Z,70.87
2017-08-22T04:25:51.771Z,70.96
2017-08-22T04:26:52.062Z,70.87
2017-08-22T04:27:52.058Z,70.96
2017-08-22T04:28:51.723Z,71.06
2017-08-22T04:29:52.024Z,70.96
2017-08-22T04:30:52.006Z,70.77
2017-08-22T04:31:52.208Z,70.2
2017-08-22T04:32:51.670Z,70.1
2017-08-22T04:33:51.984Z,70.2
2017-08-22T04:34:51.958Z,70.1
2017-08-22T04:35:51.941Z,70.77
2017-08-22T04:36:51.616Z,70.58
2017-08-22T04:37:51.924Z,69.82
2017-08-22T04:38:51.900Z,69.82
2017-08-22T04:39:51.573Z,69.53
2017-08-22T04:40:51.874Z,69.53
2017-08-22T04:41:51.548Z,69.82
2017-08-22T04:42:51.843Z,69.72
2017-08-22T04:43:51.848Z,69.43
2017-08-22T04:44:51.814Z,68.76
2017-08-22T04:45:51.806Z,68.76
2017-08-22T04:46:51.789Z,68.86
2017-08-22T04:47:51.462Z,68.86
2017-08-22T04:48:51.452Z,68.1
2017-08-22T04:49:51.751Z,67.14
2017-08-22T04:50:51.737Z,67.24
2017-08-22T04:51:51.408Z,67.33
2017-08-22T04:52:51.710Z,68.1
2017-08-22T04:53:51.699Z,68.19
2017-08-22T04:54:51.681Z,67.43
2017-08-22T04:55:51.668Z,68.23
2017-08-22T04:56:51.651Z,68.7
2017-08-22T04:57:51.645Z,68.9
2017-08-22T04:58:51.313Z,68.61
2017-08-22T04:59:51.613Z,69.37
2017-08-22T05:00:51.596Z,69.82
2017-08-22T05:01:51.587Z,69.72
2017-08-22T05:02:51.572Z,69.62
2017-08-22T05:03:51.245Z,69.95
2017-08-22T05:04:51.547Z,69.82
2017-08-22T05:05:51.530Z,69.85
2017-08-22T05:06:51.210Z,68.7
2017-08-22T05:07:51.505Z,68.7
2017-08-22T05:08:51.491Z,68.57
2017-08-22T05:09:51.166Z,68.7
2017-08-22T05:10:51.467Z,68.7
2017-08-22T05:11:51.145Z,68.7
2017-08-22T05:12:51.123Z,68.7
2017-08-22T05:13:51.424Z,68.61
2017-08-22T05:14:51.410Z,68.61
2017-08-22T05:15:51.399Z,68.99
2017-08-22T05:16:51.071Z,68.9
2017-08-22T05:17:51.374Z,69.37
2017-08-22T05:18:51.040Z,69.27
2017-08-22T05:19:51.361Z,69.95
2017-08-22T05:20:51.022Z,70.33
2017-08-22T05:21:51.319Z,70.42
2017-08-22T05:22:51.305Z,70.81
2017-08-22T05:23:51.291Z,70.81
2017-08-22T05:24:51.275Z,70.81
2017-08-22T05:25:51.263Z,71.09
2017-08-22T05:26:51.251Z,70.9
2017-08-22T05:27:50.921Z,71.09
2017-08-22T05:28:51.222Z,71.28
2017-08-22T05:29:51.213Z,71.38
2017-08-22T05:30:50.885Z,71.09
2017-08-22T05:31:51.183Z,71.57
2017-08-22T05:32:51.173Z,71.28
2017-08-22T05:33:50.843Z,71.57
2017-08-22T05:34:51.143Z,71.76
2017-08-22T05:35:50.820Z,72.05
2017-08-22T05:36:51.122Z,72.43
2017-08-22T05:37:50.792Z,71.86
2017-08-22T05:38:51.091Z,71.76
2017-08-22T05:39:51.079Z,71.76
2017-08-22T05:40:51.069Z,71.38
2017-08-22T05:41:51.052Z,71.19
2017-08-22T05:42:51.038Z,72.14
2017-08-22T05:43:51.033Z,71.57
2017-08-22T05:44:51.011Z,72.24
2017-08-22T05:45:50.995Z,72.62
2017-08-22T05:46:50.983Z,73.23
2017-08-22T05:47:51.023Z,72.62
2017-08-22T05:48:50.958Z,72.43
2017-08-22T05:49:50.946Z,72.66
2017-08-22T05:50:50.938Z,72.75
2017-08-22T05:51:50.919Z,72.47
2017-08-22T05:52:50.665Z,72.75
2017-08-22T05:53:50.808Z,73.33
2017-08-22T05:54:50.882Z,74.09
2017-08-22T05:55:50.869Z,74.48
2017-08-22T05:56:50.857Z,75.81
2017-08-22T05:57:50.843Z,76.2
2017-08-22T05:58:50.828Z,75.62
2017-08-22T05:59:50.830Z,76.77
2017-08-22T06:00:50.489Z,78.3
2017-08-22T06:01:50.794Z,78.01
2017-08-22T06:02:50.778Z,78.39
2017-08-22T06:03:50.448Z,78.68
2017-08-22T06:04:50.753Z,78.68
2017-08-22T06:05:50.737Z,79.16
2017-08-22T06:06:50.727Z,78.68
2017-08-22T06:07:50.712Z,78.58
2017-08-22T06:08:50.386Z,79.06
2017-08-22T06:09:50.693Z,78.11
2017-08-22T06:10:50.364Z,77.82
2017-08-22T06:11:50.675Z,78.43
2017-08-22T06:12:50.344Z,77.28
2017-08-22T06:13:50.325Z,77.57
2017-08-22T06:14:50.626Z,77.53
2017-08-22T06:15:50.610Z,77.86
2017-08-22T06:16:50.286Z,77.86
2017-08-22T06:17:50.275Z,79.49
2017-08-22T06:18:50.572Z,78.53
2017-08-22T06:19:50.250Z,78.05
2017-08-22T06:20:50.552Z,77.48
2017-08-22T06:21:50.534Z,77.67
2017-08-22T06:22:50.211Z,78.24
2017-08-22T06:23:50.198Z,78.05
2017-08-22T06:24:50.187Z,77.28
2017-08-22T06:25:50.493Z,77.28
2017-08-22T06:26:50.476Z,77.67
2017-08-22T06:27:50.468Z,78.63
2017-08-22T06:28:50.451Z,78.81
2017-08-22T06:29:50.439Z,78.91
2017-08-22T06:30:50.423Z,78.81
2017-08-22T06:31:50.099Z,78.05
2017-08-22T06:32:50.403Z,79.58
2017-08-22T06:33:50.077Z,79.49
2017-08-22T06:34:50.382Z,79.58
2017-08-22T06:35:50.072Z,79.29
2017-08-22T06:36:50.039Z,80.06
2017-08-22T06:37:50.027Z,79.68
2017-08-22T06:38:50.326Z,79.29
2017-08-22T06:39:50.007Z,80.44
2017-08-22T06:40:50.301Z,80.54
2017-08-22T06:41:49.978Z,80.92
2017-08-22T06:42:50.276Z,81.88
2017-08-22T06:43:50.266Z,83.6
2017-08-22T06:44:50.254Z,83.4
2017-08-22T06:45:49.927Z,84.88
2017-08-22T06:46:50.227Z,85.32
2017-08-22T06:47:50.213Z,85.41
2017-08-22T06:48:49.893Z,86.04
2017-08-22T06:49:49.885Z,86.37
2017-08-22T06:50:50.178Z,85.27
2017-08-22T06:51:50.169Z,85.65
2017-08-22T06:52:50.151Z,84.98
2017-08-22T06:53:50.152Z,87.66
2017-08-22T06:54:50.132Z,86.41
2017-08-22T06:55:49.822Z,86.7
2017-08-22T06:56:49.794Z,86.9
2017-08-22T06:57:49.783Z,87.27
2017-08-22T06:58:50.081Z,87.08
2017-08-22T06:59:50.071Z,87.47
2017-08-22T07:00:49.742Z,88.04
2017-08-22T07:01:49.728Z,88.33
2017-08-22T07:02:50.030Z,87.56
2017-08-22T07:03:49.713Z,87.47
2017-08-22T07:04:50.006Z,88.81
2017-08-22T07:05:49.994Z,88.66
2017-08-22T07:06:49.982Z,89.04
2017-08-22T07:07:49.971Z,88.47
2017-08-22T07:08:49.644Z,87.7
2017-08-22T07:09:49.943Z,88.37
2017-08-22T07:10:49.624Z,88.95
2017-08-22T07:11:49.609Z,89.04
2017-08-22T07:12:49.596Z,88.37
2017-08-22T07:13:49.915Z,89.33
2017-08-22T07:14:49.887Z,90.19
2017-08-22T07:15:49.872Z,88.85
2017-08-22T07:16:49.859Z,89.72
2017-08-22T07:17:49.850Z,90.48
2017-08-22T07:18:49.530Z,91.34
2017-08-22T07:19:49.827Z,91.05
2017-08-22T07:20:49.813Z,91.44
2017-08-22T07:21:49.506Z,90.62
2017-08-22T07:22:49.789Z,92.63
2017-08-22T07:23:49.776Z,94.35
2017-08-22T07:24:49.764Z,95.31
2017-08-22T07:25:49.757Z,92.44
2017-08-22T07:26:49.741Z,90.43
2017-08-22T07:27:49.730Z,93.63
2017-08-22T07:28:49.724Z,94.12
2017-08-22T07:29:49.707Z,96.61
2017-08-22T07:30:49.697Z,97.47
2017-08-22T07:31:49.385Z,97.76
2017-08-22T07:32:49.371Z,98.24
2017-08-22T07:33:49.352Z,99.99
2017-08-22T07:34:49.656Z,99.99
2017-08-22T07:35:49.647Z,98.57
2017-08-22T07:36:49.632Z,96.66
2017-08-22T07:37:49.642Z,97.52
2017-08-22T07:38:49.615Z,97.9
2017-08-22T07:39:49.600Z,97.42
2017-08-22T07:40:49.295Z,96.56
2017-08-22T07:41:49.576Z,98.1
2017-08-22T07:42:49.564Z,96.47
2017-08-22T07:43:49.241Z,96.99
2017-08-22T07:44:49.239Z,98.38
2017-08-22T07:45:49.220Z,98.62
2017-08-22T07:46:49.524Z,99.99
2017-08-22T07:47:49.520Z,99.96
2017-08-22T07:48:49.191Z,99.99
2017-08-22T07:49:49.182Z,99.99
2017-08-22T07:50:49.170Z,99.99
2017-08-22T07:51:49.471Z,99.99
2017-08-22T07:52:49.466Z,99.99
2017-08-22T07:53:49.653Z,99.99
2017-08-22T07:54:49.127Z,99.99
2017-08-22T07:55:49.431Z,99.99
2017-08-22T07:56:49.425Z,99.15
2017-08-22T07:57:49.410Z,99.99
2017-08-22T07:58:49.404Z,99.99
2017-08-22T07:59:49.390Z,99.99
2017-08-22T08:00:49.380Z,99.99
2017-08-22T08:01:49.377Z,99.99
2017-08-22T08:02:49.360Z,99.99
2017-08-22T08:03:49.348Z,99.99
2017-08-22T08:04:49.032Z,99.99
2017-08-22T08:05:49.333Z,99.99
2017-08-22T08:06:49.320Z,99.99
2017-08-22T08:07:49.312Z,99.99
2017-08-22T08:08:49.301Z,99.99
2017-08-22T08:09:48.972Z,99.99
2017-08-22T08:10:49.280Z,99.99
2017-08-22T08:11:49.272Z,99.99
2017-08-22T08:12:49.259Z,99.99
2017-08-22T08:13:48.940Z,99.99
2017-08-22T08:14:49.244Z,99.99
2017-08-22T08:15:48.918Z,99.99
2017-08-22T08:16:49.223Z,99.99
2017-08-22T08:17:49.213Z,99.99
2017-08-22T08:18:49.202Z,99.99
2017-08-22T08:19:49.193Z,99.99
2017-08-22T08:20:49.182Z,99.99
2017-08-22T08:21:48.865Z,99.99
2017-08-22T08:22:48.854Z,99.99
2017-08-22T08:23:49.160Z,99.99
2017-08-22T08:24:49.153Z,99.99
2017-08-22T08:25:48.835Z,99.99
2017-08-22T08:26:49.130Z,99.99
2017-08-22T08:27:48.815Z,99.99
2017-08-22T08:28:49.119Z,99.99
2017-08-22T08:29:48.796Z,99.99
2017-08-22T08:30:48.790Z,99.99
2017-08-22T08:31:48.779Z,99.99
2017-08-22T08:32:49.083Z,99.99
2017-08-22T08:33:49.097Z,99.99
2017-08-22T08:34:48.756Z,99.99
2017-08-22T08:35:49.065Z,99.99
2017-08-22T08:36:49.057Z,99.99
2017-08-22T08:37:49.049Z,99.99
2017-08-22T08:38:49.040Z,99.99
2017-08-22T08:39:49.042Z,99.99
2017-08-22T08:40:49.046Z,99.99
2017-08-22T08:41:49.011Z,99.99
2017-08-22T08:42:49.005Z,99.99
2017-08-22T08:43:48.687Z,99.99
2017-08-22T08:44:48.988Z,99.99
2017-08-22T08:45:48.665Z,99.99
2017-08-22T08:46:48.971Z,99.99
2017-08-22T08:47:48.651Z,99.99
2017-08-22T08:48:48.645Z,99.99
2017-08-22T08:49:48.946Z,99.99
2017-08-22T08:50:48.940Z,99.99
2017-08-22T08:51:48.932Z,99.99
2017-08-22T08:52:48.923Z,99.99
2017-08-22T08:53:48.679Z,99.99
2017-08-22T08:54:48.910Z,99.99
2017-08-22T08:55:48.586Z,99.99
2017-08-22T08:56:48.580Z,99.99
2017-08-22T08:57:48.885Z,99.99
2017-08-22T08:58:48.880Z,99.99
2017-08-22T08:59:48.556Z,99.99
2017-08-22T09:00:48.859Z,99.99
2017-08-22T09:01:48.854Z,99.99
2017-08-22T09:02:48.533Z,99.99
2017-08-22T09:03:48.523Z,99.99
2017-08-22T09:04:48.520Z,99.99
2017-08-22T09:05:48.506Z,99.99
2017-08-22T09:06:48.814Z,99.99
2017-08-22T09:07:48.492Z,99.99
2017-08-22T09:08:48.497Z,99.99
2017-08-22T09:09:48.788Z,99.99
2017-08-22T09:10:48.470Z,99.99
2017-08-22T09:11:48.466Z,99.99
2017-08-22T09:12:48.767Z,99.99
2017-08-22T09:13:48.443Z,99.99
2017-08-22T09:14:48.747Z,99.99
2017-08-22T09:15:48.743Z,99.99
2017-08-22T09:16:48.737Z,99.99
2017-08-22T09:17:48.726Z,99.99
2017-08-22T09:18:48.724Z,99.99
2017-08-22T09:19:48.449Z,99.99
2017-08-22T09:20:48.389Z,99.99
2017-08-22T09:21:48.722Z,99.99
2017-08-22T09:22:48.380Z,99.99
2017-08-22T09:23:48.368Z,99.99
2017-08-22T09:24:48.676Z,99.99
2017-08-22T09:25:48.356Z,99.99
2017-08-22T09:26:48.348Z,99.99
2017-08-22T09:27:48.341Z,99.99
2017-08-22T09:28:48.649Z,99.99
2017-08-22T09:29:48.324Z,99.99
2017-08-22T09:30:48.322Z,99.99
2017-08-22T09:31:48.621Z,99.99
2017-08-22T09:32:48.301Z,99.99
2017-08-22T09:33:48.610Z,99.99
2017-08-22T09:34:48.604Z,99.99
2017-08-22T09:35:48.285Z,99.99
2017-08-22T09:36:48.280Z,99.99
2017-08-22T09:37:48.585Z,99.99
2017-08-22T09:38:48.260Z,99.99
2017-08-22T09:39:48.567Z,99.99
2017-08-22T09:40:48.557Z,99.99
2017-08-22T09:41:48.556Z,99.99
2017-08-22T09:42:48.540Z,99.99
2017-08-22T09:43:48.222Z,99.99
2017-08-22T09:44:48.212Z,99.99
2017-08-22T09:45:48.521Z,99.99
2017-08-22T09:46:48.197Z,99.99
2017-08-22T09:47:48.240Z,99.99
2017-08-22T09:48:48.499Z,99.99
2017-08-22T09:49:48.185Z,99.99
2017-08-22T09:50:48.482Z,99.99
2017-08-22T09:51:48.474Z,99.99
2017-08-22T09:52:48.155Z,99.99
2017-08-22T09:53:48.349Z,99.99
2017-08-22T09:54:48.454Z,99.99
2017-08-22T09:55:48.449Z,99.99
2017-08-22T09:56:48.442Z,99.99
2017-08-22T09:57:48.437Z,99.99
2017-08-22T09:58:48.113Z,99.99
2017-08-22T09:59:48.417Z,99.99
2017-08-22T10:00:48.414Z,99.99
2017-08-22T10:01:48.404Z,99.99
2017-08-22T10:02:48.394Z,99.99
2017-08-22T10:03:48.077Z,99.99
2017-08-22T10:04:48.384Z,99.99
2017-08-22T10:05:48.079Z,99.99
2017-08-22T10:06:48.375Z,99.99
2017-08-22T10:07:48.372Z,99.84
2017-08-22T10:08:48.358Z,96.66
2017-08-22T10:09:48.034Z,99.99
2017-08-22T10:10:48.083Z,99.99
2017-08-22T10:11:48.330Z,99.99
2017-08-22T10:12:48.326Z,99.99
2017-08-22T10:13:48.318Z,99.99
2017-08-22T10:14:48.001Z,99.99
2017-08-22T10:15:47.991Z,99.99
2017-08-22T10:16:48.304Z,99.99
2017-08-22T10:17:48.291Z,99.99
2017-08-22T10:18:48.289Z,99.99
2017-08-22T10:19:48.279Z,99.99
2017-08-22T10:20:48.274Z,99.99
2017-08-22T10:21:48.278Z,99.99
2017-08-22T10:22:48.260Z,99.99
2017-08-22T10:23:48.250Z,99.99
2017-08-22T10:24:48.245Z,99.99
2017-08-22T10:25:48.237Z,95.36
2017-08-22T10:26:47.920Z,96.51
2017-08-22T10:27:48.231Z,99.99
2017-08-22T10:28:47.907Z,99.99
2017-08-22T10:29:47.902Z,99.99
2017-08-22T10:30:48.207Z,99.99
2017-08-22T10:31:47.889Z,99.99
2017-08-22T10:32:47.881Z,99.99
2017-08-22T10:33:48.195Z,99.99
2017-08-22T10:34:47.871Z,99.99
2017-08-22T10:35:47.916Z,95.31
2017-08-22T10:36:48.168Z,95.45
2017-08-22T10:37:47.855Z,98.92
2017-08-22T10:38:47.846Z,94.58
2017-08-22T10:39:47.842Z,92.79
2017-08-22T10:40:47.838Z,94.24
2017-08-22T10:41:47.825Z,91.09
2017-08-22T10:42:47.820Z,93.23
2017-08-22T10:43:47.816Z,84.24
2017-08-22T10:44:47.808Z,85.01
2017-08-22T10:45:47.803Z,87.27
2017-08-22T10:46:47.800Z,85.35
2017-08-22T10:47:48.103Z,80.9
2017-08-22T10:48:47.789Z,81.09
2017-08-22T10:49:48.090Z,84.19
2017-08-22T10:50:48.090Z,84.95
2017-08-22T10:51:48.082Z,84.09
2017-08-22T10:52:48.079Z,83.22
2017-08-22T10:53:48.075Z,82.06
2017-08-22T10:54:48.067Z,82.35
2017-08-22T10:55:48.063Z,82.45
2017-08-22T10:56:48.058Z,83.12
2017-08-22T10:57:48.058Z,85.21
2017-08-22T10:58:47.732Z,84.82
2017-08-22T10:59:48.045Z,88.49
2017-08-22T11:00:48.035Z,84.63
2017-08-22T11:01:48.031Z,82.75
2017-08-22T11:02:47.717Z,83.04
2017-08-22T11:03:47.707Z,86.8
2017-08-22T11:04:47.704Z,88.15
2017-08-22T11:05:48.006Z,88.15
2017-08-22T11:06:47.999Z,86.13
2017-08-22T11:07:47.700Z,87
2017-08-22T11:08:47.682Z,86.03
2017-08-22T11:09:48.041Z,82.89
2017-08-22T11:10:47.697Z,83.47
2017-08-22T11:11:47.983Z,83.12
2017-08-22T11:12:47.978Z,80.55
2017-08-22T11:13:47.973Z,78.56
2017-08-22T11:14:47.655Z,74.63
2017-08-22T11:15:47.966Z,72.15
2017-08-22T11:16:47.650Z,70.5
2017-08-22T11:17:47.960Z,72.47
2017-08-22T11:18:47.957Z,72.34
2017-08-22T11:19:47.955Z,76.89
2017-08-22T11:20:47.961Z,76.79
2017-08-22T11:21:47.636Z,75.61
2017-08-22T11:22:47.949Z,75.61
2017-08-22T11:23:47.961Z,72.49
2017-08-22T11:24:47.952Z,73.49
2017-08-22T11:25:47.954Z,70.81
2017-08-22T11:26:47.638Z,68.87
2017-08-22T11:27:47.643Z,69.87
2017-08-22T11:28:47.956Z,66.37
2017-08-22T11:29:47.640Z,68.44
2017-08-22T11:30:47.955Z,66.89
2017-08-22T11:31:47.963Z,66.73
2017-08-22T11:32:47.957Z,65.85
2017-08-22T11:33:47.961Z,67.9
2017-08-22T11:34:47.649Z,67.11
2017-08-22T11:35:47.973Z,66.02
2017-08-22T11:36:47.966Z,66.17
2017-08-22T11:37:47.664Z,68.28
2017-08-22T11:38:47.975Z,69.9
2017-08-22T11:39:47.972Z,71.22
2017-08-22T11:40:47.663Z,70.45
2017-08-22T11:41:47.982Z,69.35
2017-08-22T11:42:47.666Z,65.4
2017-08-22T11:43:47.670Z,66.27
2017-08-22T11:44:47.985Z,65.33
2017-08-22T11:45:47.672Z,66.11
2017-08-22T11:46:47.990Z,66.99
2017-08-22T11:47:47.988Z,66.14
2017-08-22T11:48:47.992Z,67.25
2017-08-22T11:49:47.998Z,67.18
2017-08-22T11:50:47.686Z,63.71
2017-08-22T11:51:48.011Z,62.57
2017-08-22T11:52:47.703Z,61.79
2017-08-22T11:53:48.420Z,61.99
2017-08-22T11:54:47.702Z,63.25
2017-08-22T11:55:48.018Z,63.48
2017-08-22T11:56:47.711Z,62.21
2017-08-22T11:57:47.717Z,59.51
2017-08-22T11:58:48.034Z,61.56
2017-08-22T11:59:48.037Z,60.78
2017-08-22T12:00:47.774Z,59.83
2017-08-22T12:01:48.046Z,60.42
2017-08-22T12:02:47.736Z,58.3
2017-08-22T12:03:48.055Z,56.35
2017-08-22T12:04:47.744Z,56.93
2017-08-22T12:05:48.063Z,57.64
2017-08-22T12:06:48.118Z,58.59
2017-08-22T12:07:47.759Z,57.64
2017-08-22T12:08:48.082Z,57.35
2017-08-22T12:09:48.084Z,53.66
2017-08-22T12:10:47.773Z,52.78
2017-08-22T12:11:47.784Z,55.71
2017-08-22T12:12:47.790Z,55.91
2017-08-22T12:13:47.795Z,56.92
2017-08-22T12:14:47.803Z,55.77
2017-08-22T12:15:47.807Z,55.08
2017-08-22T12:16:47.813Z,55.77
2017-08-22T12:17:47.826Z,54.33
2017-08-22T12:18:48.141Z,54.5
2017-08-22T12:19:48.148Z,55.74
2017-08-22T12:20:47.837Z,56.67
2017-08-22T12:21:47.844Z,57.91
2017-08-22T12:22:48.168Z,57.17
2017-08-22T12:23:48.219Z,57.53
2017-08-22T12:24:48.174Z,58.09
2017-08-22T12:25:47.870Z,60.1
2017-08-22T12:26:48.180Z,58.15
2017-08-22T12:27:48.200Z,59.03
2017-08-22T12:28:47.891Z,61.15
2017-08-22T12:29:47.887Z,57.9
2017-08-22T12:30:48.200Z,58.95
2017-08-22T12:31:47.891Z,64.26
2017-08-22T12:32:47.899Z,64.26
2017-08-22T12:33:48.212Z,64.04
2017-08-22T12:34:47.899Z,64.1
2017-08-22T12:35:48.224Z,64.98
2017-08-22T12:36:48.221Z,63.55
2017-08-22T12:37:47.913Z,62.99
2017-08-22T12:38:48.228Z,60.59
2017-08-22T12:39:48.249Z,61.01
2017-08-22T12:40:48.242Z,57.73
2017-08-22T12:41:48.270Z,57.85
2017-08-22T12:42:48.243Z,57.95
2017-08-22T12:43:47.933Z,56.22
2017-08-22T12:44:47.938Z,57.78
2017-08-22T12:45:48.253Z,56.81
2017-08-22T12:46:48.258Z,57.49
2017-08-22T12:47:47.947Z,58.5
2017-08-22T12:48:47.951Z,59.18
2017-08-22T12:49:48.266Z,58.33
2017-08-22T12:50:47.960Z,57.45
2017-08-22T12:51:48.275Z,56.96
2017-08-22T12:52:47.973Z,52.88
2017-08-22T12:53:47.973Z,54.64
2017-08-22T12:54:48.013Z,54.05
2017-08-22T12:55:47.990Z,56.82